sensor_id;sensor_type;location;lat;lon;timestamp;temperature;humidity
18083;DHT22;9168;51.194;6.840;2023-08-30T00:02:17;15.60;99.90
18083;DHT22;9168;51.194;6.840;2023-08-30T00:04:44;15.60;99.90
18083;DHT22;9168;51.194;6.840;2023-08-30T00:07:11;15.60;99.90
18083;DHT22;9168;51.194;6.840;2023-08-30T00:09:38;15.60;99.90
18083;DHT22;9168;51.194;6.840;2023-08-30T00:12:06;15.60;99.90
18083;DHT22;9168;51.194;6.840;2023-08-30T00:14:33;15.60;99.90
18083;DHT22;9168;51.194;6.840;2023-08-30T00:17:00;15.70;99.90
18083;DHT22;9168;51.194;6.840;2023-08-30T00:19:27;15.70;99.90
18083;DHT22;9168;51.194;6.840;2023-08-30T00:21:54;15.60;99.90
18083;DHT22;9168;51.194;6.840;2023-08-30T00:24:22;15.60;99.90
18083;DHT22;9168;51.194;6.840;2023-08-30T00:26:49;15.60;99.90
18083;DHT22;9168;51.194;6.840;2023-08-30T00:29:17;15.60;99.90
18083;DHT22;9168;51.194;6.840;2023-08-30T00:31:44;15.60;99.90
18083;DHT22;9168;51.194;6.840;2023-08-30T00:34:11;15.60;99.90
18083;DHT22;9168;51.194;6.840;2023-08-30T00:36:39;15.60;99.90
18083;DHT22;9168;51.194;6.840;2023-08-30T00:39:06;15.60;99.90
18083;DHT22;9168;51.194;6.840;2023-08-30T00:41:34;15.50;99.90
18083;DHT22;9168;51.194;6.840;2023-08-30T00:44:01;15.60;99.90
18083;DHT22;9168;51.194;6.840;2023-08-30T00:46:29;15.50;99.90
18083;DHT22;9168;51.194;6.840;2023-08-30T00:48:57;15.50;99.90
18083;DHT22;9168;51.194;6.840;2023-08-30T00:51:25;15.50;99.90
18083;DHT22;9168;51.194;6.840;2023-08-30T00:53:52;15.50;99.90
18083;DHT22;9168;51.194;6.840;2023-08-30T00:56:21;15.50;99.90
18083;DHT22;9168;51.194;6.840;2023-08-30T00:58:49;15.40;99.90
18083;DHT22;9168;51.194;6.840;2023-08-30T01:01:16;15.40;99.90
18083;DHT22;9168;51.194;6.840;2023-08-30T01:03:45;15.30;99.90
18083;DHT22;9168;51.194;6.840;2023-08-30T01:06:12;15.30;99.90
18083;DHT22;9168;51.194;6.840;2023-08-30T01:08:39;15.30;99.90
18083;DHT22;9168;51.194;6.840;2023-08-30T01:11:11;15.20;99.90
18083;DHT22;9168;51.194;6.840;2023-08-30T01:13:44;15.20;99.90
18083;DHT22;9168;51.194;6.840;2023-08-30T01:16:13;15.20;99.90
18083;DHT22;9168;51.194;6.840;2023-08-30T01:18:44;15.20;99.90
18083;DHT22;9168;51.194;6.840;2023-08-30T01:23:59;15.10;99.90
18083;DHT22;9168;51.194;6.840;2023-08-30T01:26:36;15.00;99.90
18083;DHT22;9168;51.194;6.840;2023-08-30T01:29:04;15.00;99.90
18083;DHT22;9168;51.194;6.840;2023-08-30T01:31:32;14.90;99.90
18083;DHT22;9168;51.194;6.840;2023-08-30T01:34:01;14.90;99.90
18083;DHT22;9168;51.194;6.840;2023-08-30T01:36:29;14.80;99.90
18083;DHT22;9168;51.194;6.840;2023-08-30T01:38:58;14.70;99.90
18083;DHT22;9168;51.194;6.840;2023-08-30T01:41:26;14.70;99.90
18083;DHT22;9168;51.194;6.840;2023-08-30T01:43:54;14.70;99.90
18083;DHT22;9168;51.194;6.840;2023-08-30T01:46:24;14.60;99.90
18083;DHT22;9168;51.194;6.840;2023-08-30T01:48:52;14.60;99.90
18083;DHT22;9168;51.194;6.840;2023-08-30T01:51:19;14.60;99.90
18083;DHT22;9168;51.194;6.840;2023-08-30T01:53:47;14.50;99.90
18083;DHT22;9168;51.194;6.840;2023-08-30T01:56:14;14.50;99.90
18083;DHT22;9168;51.194;6.840;2023-08-30T01:58:41;14.40;99.90
18083;DHT22;9168;51.194;6.840;2023-08-30T02:01:08;14.40;99.90
18083;DHT22;9168;51.194;6.840;2023-08-30T02:03:36;14.40;99.90
18083;DHT22;9168;51.194;6.840;2023-08-30T02:06:08;14.40;99.90
18083;DHT22;9168;51.194;6.840;2023-08-30T02:08:41;14.30;99.90
18083;DHT22;9168;51.194;6.840;2023-08-30T02:11:14;14.30;99.90
18083;DHT22;9168;51.194;6.840;2023-08-30T02:13:45;14.30;99.90
18083;DHT22;9168;51.194;6.840;2023-08-30T02:16:13;14.20;99.90
18083;DHT22;9168;51.194;6.840;2023-08-30T02:18:41;14.20;99.90
18083;DHT22;9168;51.194;6.840;2023-08-30T02:21:08;14.20;99.90
18083;DHT22;9168;51.194;6.840;2023-08-30T02:23:35;14.20;99.90
18083;DHT22;9168;51.194;6.840;2023-08-30T02:26:02;14.20;99.90
18083;DHT22;9168;51.194;6.840;2023-08-30T02:28:29;14.20;99.90
18083;DHT22;9168;51.194;6.840;2023-08-30T02:30:56;14.20;99.90
18083;DHT22;9168;51.194;6.840;2023-08-30T02:33:23;14.10;99.90
18083;DHT22;9168;51.194;6.840;2023-08-30T02:35:51;14.10;99.90
18083;DHT22;9168;51.194;6.840;2023-08-30T02:38:21;14.10;99.90
18083;DHT22;9168;51.194;6.840;2023-08-30T02:40:48;14.00;99.90
18083;DHT22;9168;51.194;6.840;2023-08-30T02:43:15;14.10;99.90
18083;DHT22;9168;51.194;6.840;2023-08-30T02:45:41;14.00;99.90
18083;DHT22;9168;51.194;6.840;2023-08-30T02:48:08;14.00;99.90
18083;DHT22;9168;51.194;6.840;2023-08-30T02:50:35;14.00;99.90
18083;DHT22;9168;51.194;6.840;2023-08-30T02:53:03;13.90;99.90
18083;DHT22;9168;51.194;6.840;2023-08-30T02:55:33;13.90;99.90
18083;DHT22;9168;51.194;6.840;2023-08-30T02:58:00;13.90;99.90
18083;DHT22;9168;51.194;6.840;2023-08-30T03:00:27;13.90;99.90
18083;DHT22;9168;51.194;6.840;2023-08-30T03:02:54;13.90;99.90
18083;DHT22;9168;51.194;6.840;2023-08-30T03:05:21;13.90;99.90
18083;DHT22;9168;51.194;6.840;2023-08-30T03:07:48;13.90;99.90
18083;DHT22;9168;51.194;6.840;2023-08-30T03:10:18;13.80;99.90
18083;DHT22;9168;51.194;6.840;2023-08-30T03:12:45;13.80;99.90
18083;DHT22;9168;51.194;6.840;2023-08-30T03:15:11;13.80;99.90
18083;DHT22;9168;51.194;6.840;2023-08-30T03:17:38;13.80;99.90
18083;DHT22;9168;51.194;6.840;2023-08-30T03:20:06;13.80;99.90
18083;DHT22;9168;51.194;6.840;2023-08-30T03:22:33;13.80;99.90
18083;DHT22;9168;51.194;6.840;2023-08-30T03:25:00;13.80;99.90
18083;DHT22;9168;51.194;6.840;2023-08-30T03:27:30;13.80;99.90
18083;DHT22;9168;51.194;6.840;2023-08-30T03:29:57;13.80;99.90
18083;DHT22;9168;51.194;6.840;2023-08-30T03:32:24;13.80;99.90
18083;DHT22;9168;51.194;6.840;2023-08-30T03:34:50;13.70;99.90
18083;DHT22;9168;51.194;6.840;2023-08-30T03:37:17;13.80;99.90
18083;DHT22;9168;51.194;6.840;2023-08-30T03:39:44;13.80;99.90
18083;DHT22;9168;51.194;6.840;2023-08-30T03:42:11;13.70;99.90
18083;DHT22;9168;51.194;6.840;2023-08-30T03:44:39;13.70;99.90
18083;DHT22;9168;51.194;6.840;2023-08-30T03:47:06;13.70;99.90
18083;DHT22;9168;51.194;6.840;2023-08-30T03:49:33;13.60;99.90
18083;DHT22;9168;51.194;6.840;2023-08-30T03:52:00;13.60;99.90
18083;DHT22;9168;51.194;6.840;2023-08-30T03:54:27;13.60;99.90
18083;DHT22;9168;51.194;6.840;2023-08-30T03:56:54;13.60;99.90
18083;DHT22;9168;51.194;6.840;2023-08-30T03:59:21;13.60;99.90
18083;DHT22;9168;51.194;6.840;2023-08-30T04:01:50;13.60;99.90
18083;DHT22;9168;51.194;6.840;2023-08-30T04:04:17;13.60;99.90
18083;DHT22;9168;51.194;6.840;2023-08-30T04:06:44;13.70;99.90
18083;DHT22;9168;51.194;6.840;2023-08-30T04:09:11;13.70;99.90
18083;DHT22;9168;51.194;6.840;2023-08-30T04:11:38;13.70;99.90
18083;DHT22;9168;51.194;6.840;2023-08-30T04:14:05;13.70;99.90
18083;DHT22;9168;51.194;6.840;2023-08-30T04:16:32;13.80;99.90
18083;DHT22;9168;51.194;6.840;2023-08-30T04:19:00;13.80;99.90
18083;DHT22;9168;51.194;6.840;2023-08-30T04:21:27;13.80;99.90
18083;DHT22;9168;51.194;6.840;2023-08-30T04:23:54;13.80;99.90
18083;DHT22;9168;51.194;6.840;2023-08-30T04:26:20;13.80;99.90
18083;DHT22;9168;51.194;6.840;2023-08-30T04:28:47;13.80;99.90
18083;DHT22;9168;51.194;6.840;2023-08-30T04:31:14;13.90;99.90
18083;DHT22;9168;51.194;6.840;2023-08-30T04:33:41;13.90;99.90
18083;DHT22;9168;51.194;6.840;2023-08-30T04:36:09;13.90;99.90
18083;DHT22;9168;51.194;6.840;2023-08-30T04:38:36;13.90;99.90
18083;DHT22;9168;51.194;6.840;2023-08-30T04:41:03;13.90;99.90
18083;DHT22;9168;51.194;6.840;2023-08-30T04:43:30;14.00;99.90
18083;DHT22;9168;51.194;6.840;2023-08-30T04:45:56;14.00;99.90
18083;DHT22;9168;51.194;6.840;2023-08-30T04:48:23;14.10;99.90
18083;DHT22;9168;51.194;6.840;2023-08-30T04:50:58;14.10;99.90
18083;DHT22;9168;51.194;6.840;2023-08-30T04:53:29;14.10;99.90
18083;DHT22;9168;51.194;6.840;2023-08-30T04:55:57;14.10;99.90
18083;DHT22;9168;51.194;6.840;2023-08-30T04:58:24;14.20;99.90
18083;DHT22;9168;51.194;6.840;2023-08-30T05:00:51;14.20;99.90
18083;DHT22;9168;51.194;6.840;2023-08-30T05:03:18;14.20;99.90
18083;DHT22;9168;51.194;6.840;2023-08-30T05:05:45;14.30;99.90
18083;DHT22;9168;51.194;6.840;2023-08-30T05:08:12;14.30;99.90
18083;DHT22;9168;51.194;6.840;2023-08-30T05:10:41;14.40;99.90
18083;DHT22;9168;51.194;6.840;2023-08-30T05:13:08;14.40;99.90
18083;DHT22;9168;51.194;6.840;2023-08-30T05:15:36;14.50;99.90
18083;DHT22;9168;51.194;6.840;2023-08-30T05:18:03;14.50;99.90
18083;DHT22;9168;51.194;6.840;2023-08-30T05:20:30;14.50;99.90
18083;DHT22;9168;51.194;6.840;2023-08-30T05:22:57;14.60;99.90
18083;DHT22;9168;51.194;6.840;2023-08-30T05:25:24;14.60;99.90
18083;DHT22;9168;51.194;6.840;2023-08-30T05:27:52;14.60;99.90
18083;DHT22;9168;51.194;6.840;2023-08-30T05:30:19;14.60;99.90
18083;DHT22;9168;51.194;6.840;2023-08-30T05:32:46;14.50;99.90
18083;DHT22;9168;51.194;6.840;2023-08-30T05:35:13;14.60;99.90
18083;DHT22;9168;51.194;6.840;2023-08-30T05:37:40;14.50;99.90
18083;DHT22;9168;51.194;6.840;2023-08-30T05:40:08;14.60;99.90
18083;DHT22;9168;51.194;6.840;2023-08-30T05:42:35;14.60;99.90
18083;DHT22;9168;51.194;6.840;2023-08-30T05:45:04;14.60;99.90
18083;DHT22;9168;51.194;6.840;2023-08-30T05:47:31;14.60;99.90
18083;DHT22;9168;51.194;6.840;2023-08-30T05:49:57;14.60;99.90
18083;DHT22;9168;51.194;6.840;2023-08-30T05:52:24;14.70;99.90
18083;DHT22;9168;51.194;6.840;2023-08-30T05:54:51;14.80;99.90
18083;DHT22;9168;51.194;6.840;2023-08-30T05:57:18;14.90;99.90
18083;DHT22;9168;51.194;6.840;2023-08-30T05:59:49;14.90;99.90
18083;DHT22;9168;51.194;6.840;2023-08-30T06:02:17;15.00;99.90
18083;DHT22;9168;51.194;6.840;2023-08-30T06:04:44;15.00;99.90
18083;DHT22;9168;51.194;6.840;2023-08-30T06:07:10;15.00;99.90
18083;DHT22;9168;51.194;6.840;2023-08-30T06:09:37;15.00;99.90
18083;DHT22;9168;51.194;6.840;2023-08-30T06:12:05;15.00;99.90
18083;DHT22;9168;51.194;6.840;2023-08-30T06:14:32;15.00;99.90
18083;DHT22;9168;51.194;6.840;2023-08-30T06:16:59;15.00;99.90
18083;DHT22;9168;51.194;6.840;2023-08-30T06:19:27;15.00;99.90
18083;DHT22;9168;51.194;6.840;2023-08-30T06:21:54;15.00;99.90
18083;DHT22;9168;51.194;6.840;2023-08-30T06:24:22;15.00;99.90
18083;DHT22;9168;51.194;6.840;2023-08-30T06:26:49;15.00;99.90
18083;DHT22;9168;51.194;6.840;2023-08-30T06:29:15;15.00;99.90
18083;DHT22;9168;51.194;6.840;2023-08-30T06:31:42;15.00;99.90
18083;DHT22;9168;51.194;6.840;2023-08-30T06:34:10;15.00;99.90
18083;DHT22;9168;51.194;6.840;2023-08-30T06:36:39;15.10;99.90
18083;DHT22;9168;51.194;6.840;2023-08-30T06:39:05;15.20;99.90
18083;DHT22;9168;51.194;6.840;2023-08-30T06:41:33;15.30;99.90
18083;DHT22;9168;51.194;6.840;2023-08-30T06:43:59;15.40;99.90
18083;DHT22;9168;51.194;6.840;2023-08-30T06:46:26;15.40;99.90
18083;DHT22;9168;51.194;6.840;2023-08-30T06:48:53;15.60;99.90
18083;DHT22;9168;51.194;6.840;2023-08-30T06:51:20;15.60;99.90
18083;DHT22;9168;51.194;6.840;2023-08-30T06:53:48;15.60;99.90
18083;DHT22;9168;51.194;6.840;2023-08-30T06:56:15;15.70;99.90
18083;DHT22;9168;51.194;6.840;2023-08-30T06:58:42;15.70;99.90
18083;DHT22;9168;51.194;6.840;2023-08-30T07:01:09;15.80;99.90
18083;DHT22;9168;51.194;6.840;2023-08-30T07:03:36;15.70;99.90
18083;DHT22;9168;51.194;6.840;2023-08-30T07:06:03;15.80;99.90
18083;DHT22;9168;51.194;6.840;2023-08-30T07:08:29;15.80;99.90
18083;DHT22;9168;51.194;6.840;2023-08-30T07:10:58;15.80;99.90
18083;DHT22;9168;51.194;6.840;2023-08-30T07:13:25;15.80;99.90
18083;DHT22;9168;51.194;6.840;2023-08-30T07:15:52;15.90;99.90
18083;DHT22;9168;51.194;6.840;2023-08-30T07:18:19;15.90;99.90
18083;DHT22;9168;51.194;6.840;2023-08-30T07:20:46;16.00;99.90
18083;DHT22;9168;51.194;6.840;2023-08-30T07:23:13;16.00;99.90
18083;DHT22;9168;51.194;6.840;2023-08-30T07:25:40;16.10;99.90
18083;DHT22;9168;51.194;6.840;2023-08-30T07:28:08;16.10;99.90
18083;DHT22;9168;51.194;6.840;2023-08-30T07:30:35;16.20;99.90
18083;DHT22;9168;51.194;6.840;2023-08-30T07:33:03;16.20;99.90
18083;DHT22;9168;51.194;6.840;2023-08-30T07:35:31;16.20;99.90
18083;DHT22;9168;51.194;6.840;2023-08-30T07:37:58;16.20;99.90
18083;DHT22;9168;51.194;6.840;2023-08-30T07:40:25;16.30;99.90
18083;DHT22;9168;51.194;6.840;2023-08-30T07:42:53;16.40;99.90
18083;DHT22;9168;51.194;6.840;2023-08-30T07:45:22;16.50;99.90
18083;DHT22;9168;51.194;6.840;2023-08-30T07:47:48;16.60;99.90
18083;DHT22;9168;51.194;6.840;2023-08-30T07:50:15;16.70;99.90
18083;DHT22;9168;51.194;6.840;2023-08-30T07:52:42;16.80;99.90
18083;DHT22;9168;51.194;6.840;2023-08-30T07:55:09;16.80;99.90
18083;DHT22;9168;51.194;6.840;2023-08-30T07:57:36;16.90;99.90
18083;DHT22;9168;51.194;6.840;2023-08-30T08:00:04;17.00;99.90
18083;DHT22;9168;51.194;6.840;2023-08-30T08:02:32;17.10;99.90
18083;DHT22;9168;51.194;6.840;2023-08-30T08:04:59;17.20;99.90
18083;DHT22;9168;51.194;6.840;2023-08-30T08:07:26;17.30;99.90
18083;DHT22;9168;51.194;6.840;2023-08-30T08:09:53;17.40;99.90
18083;DHT22;9168;51.194;6.840;2023-08-30T08:12:20;17.50;99.90
18083;DHT22;9168;51.194;6.840;2023-08-30T08:14:47;17.70;99.90
18083;DHT22;9168;51.194;6.840;2023-08-30T08:17:14;17.70;99.90
18083;DHT22;9168;51.194;6.840;2023-08-30T08:19:42;17.70;99.90
18083;DHT22;9168;51.194;6.840;2023-08-30T08:22:09;17.70;99.90
18083;DHT22;9168;51.194;6.840;2023-08-30T08:24:36;17.70;99.90
18083;DHT22;9168;51.194;6.840;2023-08-30T08:27:03;17.80;99.90
18083;DHT22;9168;51.194;6.840;2023-08-30T08:29:31;17.90;99.90
18083;DHT22;9168;51.194;6.840;2023-08-30T08:31:58;17.90;99.90
18083;DHT22;9168;51.194;6.840;2023-08-30T08:34:25;17.90;99.90
18083;DHT22;9168;51.194;6.840;2023-08-30T08:36:53;17.90;99.90
18083;DHT22;9168;51.194;6.840;2023-08-30T08:39:20;17.90;99.90
18083;DHT22;9168;51.194;6.840;2023-08-30T08:41:47;18.00;99.90
18083;DHT22;9168;51.194;6.840;2023-08-30T08:44:15;18.10;99.90
18083;DHT22;9168;51.194;6.840;2023-08-30T08:46:42;18.10;99.90
18083;DHT22;9168;51.194;6.840;2023-08-30T08:49:11;18.20;99.90
18083;DHT22;9168;51.194;6.840;2023-08-30T08:51:39;18.20;99.90
18083;DHT22;9168;51.194;6.840;2023-08-30T08:54:09;18.30;99.90
18083;DHT22;9168;51.194;6.840;2023-08-30T08:56:37;18.40;99.90
18083;DHT22;9168;51.194;6.840;2023-08-30T08:59:04;18.50;99.90
18083;DHT22;9168;51.194;6.840;2023-08-30T09:01:34;18.60;99.90
18083;DHT22;9168;51.194;6.840;2023-08-30T09:04:04;18.70;99.90
18083;DHT22;9168;51.194;6.840;2023-08-30T09:06:31;18.70;99.90
18083;DHT22;9168;51.194;6.840;2023-08-30T09:09:02;18.80;99.90
18083;DHT22;9168;51.194;6.840;2023-08-30T09:11:31;18.80;99.90
18083;DHT22;9168;51.194;6.840;2023-08-30T09:13:58;18.70;99.90
18083;DHT22;9168;51.194;6.840;2023-08-30T09:16:25;18.60;99.90
18083;DHT22;9168;51.194;6.840;2023-08-30T09:18:59;18.50;99.90
18083;DHT22;9168;51.194;6.840;2023-08-30T09:21:27;18.40;99.90
18083;DHT22;9168;51.194;6.840;2023-08-30T09:23:58;18.30;99.90
18083;DHT22;9168;51.194;6.840;2023-08-30T09:26:25;18.30;99.90
18083;DHT22;9168;51.194;6.840;2023-08-30T09:28:55;18.30;99.90
18083;DHT22;9168;51.194;6.840;2023-08-30T09:31:22;18.30;99.90
18083;DHT22;9168;51.194;6.840;2023-08-30T09:33:48;18.30;99.90
18083;DHT22;9168;51.194;6.840;2023-08-30T09:36:15;18.20;99.90
18083;DHT22;9168;51.194;6.840;2023-08-30T09:38:48;18.10;99.90
18083;DHT22;9168;51.194;6.840;2023-08-30T09:41:16;18.00;99.90
18083;DHT22;9168;51.194;6.840;2023-08-30T09:43:43;18.00;99.90
18083;DHT22;9168;51.194;6.840;2023-08-30T09:46:11;18.10;99.90
18083;DHT22;9168;51.194;6.840;2023-08-30T09:48:38;18.00;99.90
18083;DHT22;9168;51.194;6.840;2023-08-30T09:51:08;18.10;99.90
18083;DHT22;9168;51.194;6.840;2023-08-30T09:53:40;18.20;99.90
18083;DHT22;9168;51.194;6.840;2023-08-30T09:56:13;18.20;99.90
18083;DHT22;9168;51.194;6.840;2023-08-30T09:58:41;18.20;99.90
18083;DHT22;9168;51.194;6.840;2023-08-30T10:01:10;18.10;99.90
18083;DHT22;9168;51.194;6.840;2023-08-30T10:03:37;18.10;99.90
18083;DHT22;9168;51.194;6.840;2023-08-30T10:06:05;18.00;99.90
18083;DHT22;9168;51.194;6.840;2023-08-30T10:08:34;18.00;99.90
18083;DHT22;9168;51.194;6.840;2023-08-30T10:11:02;18.00;99.90
18083;DHT22;9168;51.194;6.840;2023-08-30T10:13:29;17.90;99.90
18083;DHT22;9168;51.194;6.840;2023-08-30T10:16:00;17.80;99.90
18083;DHT22;9168;51.194;6.840;2023-08-30T10:18:32;17.70;99.90
18083;DHT22;9168;51.194;6.840;2023-08-30T10:21:02;17.70;99.90
18083;DHT22;9168;51.194;6.840;2023-08-30T10:23:34;17.60;99.90
18083;DHT22;9168;51.194;6.840;2023-08-30T10:26:02;17.60;99.90
18083;DHT22;9168;51.194;6.840;2023-08-30T10:28:31;17.50;99.90
18083;DHT22;9168;51.194;6.840;2023-08-30T10:30:58;17.50;99.90
18083;DHT22;9168;51.194;6.840;2023-08-30T10:33:25;17.50;99.90
18083;DHT22;9168;51.194;6.840;2023-08-30T10:35:53;17.50;99.90
18083;DHT22;9168;51.194;6.840;2023-08-30T10:38:29;17.50;99.90
18083;DHT22;9168;51.194;6.840;2023-08-30T10:41:05;17.40;99.90
18083;DHT22;9168;51.194;6.840;2023-08-30T10:43:35;17.40;99.90
18083;DHT22;9168;51.194;6.840;2023-08-30T10:46:02;17.50;99.90
18083;DHT22;9168;51.194;6.840;2023-08-30T10:48:39;17.50;99.90
18083;DHT22;9168;51.194;6.840;2023-08-30T10:51:35;17.50;99.90
18083;DHT22;9168;51.194;6.840;2023-08-30T10:54:10;17.40;99.90
18083;DHT22;9168;51.194;6.840;2023-08-30T10:56:46;17.30;99.90
18083;DHT22;9168;51.194;6.840;2023-08-30T10:59:17;17.10;99.90
18083;DHT22;9168;51.194;6.840;2023-08-30T11:01:45;17.00;99.90
18083;DHT22;9168;51.194;6.840;2023-08-30T11:04:14;16.80;99.90
18083;DHT22;9168;51.194;6.840;2023-08-30T11:06:44;16.60;99.90
18083;DHT22;9168;51.194;6.840;2023-08-30T11:09:13;16.50;99.90
18083;DHT22;9168;51.194;6.840;2023-08-30T11:11:40;16.40;99.90
18083;DHT22;9168;51.194;6.840;2023-08-30T11:14:07;16.40;99.90
18083;DHT22;9168;51.194;6.840;2023-08-30T11:16:34;16.30;99.90
18083;DHT22;9168;51.194;6.840;2023-08-30T11:19:02;16.30;99.90
18083;DHT22;9168;51.194;6.840;2023-08-30T11:21:30;16.20;99.90
18083;DHT22;9168;51.194;6.840;2023-08-30T11:23:59;16.20;99.90
18083;DHT22;9168;51.194;6.840;2023-08-30T11:26:26;16.10;99.90
18083;DHT22;9168;51.194;6.840;2023-08-30T11:28:53;16.10;99.90
18083;DHT22;9168;51.194;6.840;2023-08-30T11:31:22;16.10;99.90
18083;DHT22;9168;51.194;6.840;2023-08-30T11:33:52;16.10;99.90
18083;DHT22;9168;51.194;6.840;2023-08-30T11:36:21;16.00;99.90
18083;DHT22;9168;51.194;6.840;2023-08-30T11:38:49;16.00;99.90
18083;DHT22;9168;51.194;6.840;2023-08-30T11:41:17;16.00;99.90
18083;DHT22;9168;51.194;6.840;2023-08-30T11:43:47;16.10;99.90
18083;DHT22;9168;51.194;6.840;2023-08-30T11:46:14;16.10;99.90
18083;DHT22;9168;51.194;6.840;2023-08-30T11:48:41;16.00;99.90
18083;DHT22;9168;51.194;6.840;2023-08-30T11:51:08;16.10;99.90
18083;DHT22;9168;51.194;6.840;2023-08-30T11:53:36;16.00;99.90
18083;DHT22;9168;51.194;6.840;2023-08-30T11:56:05;16.10;99.90
18083;DHT22;9168;51.194;6.840;2023-08-30T11:58:34;16.10;99.90
18083;DHT22;9168;51.194;6.840;2023-08-30T12:01:02;16.10;99.90
18083;DHT22;9168;51.194;6.840;2023-08-30T12:03:30;16.10;99.90
18083;DHT22;9168;51.194;6.840;2023-08-30T12:05:58;16.00;99.90
18083;DHT22;9168;51.194;6.840;2023-08-30T12:08:26;16.00;99.90
18083;DHT22;9168;51.194;6.840;2023-08-30T12:10:53;16.00;99.90
18083;DHT22;9168;51.194;6.840;2023-08-30T12:13:22;16.00;99.90
18083;DHT22;9168;51.194;6.840;2023-08-30T12:15:51;16.00;99.90
18083;DHT22;9168;51.194;6.840;2023-08-30T12:18:21;16.10;99.90
18083;DHT22;9168;51.194;6.840;2023-08-30T12:20:52;16.10;99.90
18083;DHT22;9168;51.194;6.840;2023-08-30T12:23:20;16.00;99.90
18083;DHT22;9168;51.194;6.840;2023-08-30T12:25:57;16.00;99.90
18083;DHT22;9168;51.194;6.840;2023-08-30T12:28:24;16.10;99.90
18083;DHT22;9168;51.194;6.840;2023-08-30T12:30:52;16.10;99.90
18083;DHT22;9168;51.194;6.840;2023-08-30T12:33:19;16.10;99.90
18083;DHT22;9168;51.194;6.840;2023-08-30T12:35:47;16.20;99.90
18083;DHT22;9168;51.194;6.840;2023-08-30T12:38:14;16.30;99.90
18083;DHT22;9168;51.194;6.840;2023-08-30T12:40:44;16.30;99.90
18083;DHT22;9168;51.194;6.840;2023-08-30T12:43:10;16.40;99.90
18083;DHT22;9168;51.194;6.840;2023-08-30T12:45:38;16.40;99.90
18083;DHT22;9168;51.194;6.840;2023-08-30T12:48:08;16.40;99.90
18083;DHT22;9168;51.194;6.840;2023-08-30T12:50:35;16.40;99.90
18083;DHT22;9168;51.194;6.840;2023-08-30T12:53:03;16.40;99.90
18083;DHT22;9168;51.194;6.840;2023-08-30T12:55:30;16.30;99.90
18083;DHT22;9168;51.194;6.840;2023-08-30T12:57:57;16.30;99.90
18083;DHT22;9168;51.194;6.840;2023-08-30T13:00:24;16.30;99.90
18083;DHT22;9168;51.194;6.840;2023-08-30T13:02:51;16.20;99.90
18083;DHT22;9168;51.194;6.840;2023-08-30T13:05:20;16.20;99.90
18083;DHT22;9168;51.194;6.840;2023-08-30T13:07:47;16.20;99.90
18083;DHT22;9168;51.194;6.840;2023-08-30T13:10:14;16.20;99.90
18083;DHT22;9168;51.194;6.840;2023-08-30T13:12:42;16.20;99.90
18083;DHT22;9168;51.194;6.840;2023-08-30T13:15:10;16.20;99.90
18083;DHT22;9168;51.194;6.840;2023-08-30T13:17:37;16.20;99.90
18083;DHT22;9168;51.194;6.840;2023-08-30T13:20:04;16.20;99.90
18083;DHT22;9168;51.194;6.840;2023-08-30T13:22:32;16.30;99.90
18083;DHT22;9168;51.194;6.840;2023-08-30T13:24:59;16.30;99.90
18083;DHT22;9168;51.194;6.840;2023-08-30T13:27:26;16.30;99.90
18083;DHT22;9168;51.194;6.840;2023-08-30T13:29:53;16.40;99.90
18083;DHT22;9168;51.194;6.840;2023-08-30T13:32:20;16.40;99.90
18083;DHT22;9168;51.194;6.840;2023-08-30T13:34:47;16.30;99.90
18083;DHT22;9168;51.194;6.840;2023-08-30T13:37:14;16.30;99.90
18083;DHT22;9168;51.194;6.840;2023-08-30T13:39:42;16.30;99.90
18083;DHT22;9168;51.194;6.840;2023-08-30T13:42:09;16.30;99.90
18083;DHT22;9168;51.194;6.840;2023-08-30T13:44:36;16.30;99.90
18083;DHT22;9168;51.194;6.840;2023-08-30T13:47:03;16.40;99.90
18083;DHT22;9168;51.194;6.840;2023-08-30T13:49:31;16.40;99.90
18083;DHT22;9168;51.194;6.840;2023-08-30T13:51:58;16.40;99.90
18083;DHT22;9168;51.194;6.840;2023-08-30T13:54:25;16.50;99.90
18083;DHT22;9168;51.194;6.840;2023-08-30T13:56:57;16.50;99.90
18083;DHT22;9168;51.194;6.840;2023-08-30T13:59:24;16.50;99.90
18083;DHT22;9168;51.194;6.840;2023-08-30T14:01:51;16.50;99.90
18083;DHT22;9168;51.194;6.840;2023-08-30T14:04:18;16.40;99.90
18083;DHT22;9168;51.194;6.840;2023-08-30T14:06:44;16.40;99.90
18083;DHT22;9168;51.194;6.840;2023-08-30T14:09:11;16.50;99.90
18083;DHT22;9168;51.194;6.840;2023-08-30T14:11:39;16.50;99.90
18083;DHT22;9168;51.194;6.840;2023-08-30T14:14:10;16.50;99.90
18083;DHT22;9168;51.194;6.840;2023-08-30T14:16:36;16.60;99.90
18083;DHT22;9168;51.194;6.840;2023-08-30T14:19:03;16.50;99.90
18083;DHT22;9168;51.194;6.840;2023-08-30T14:21:31;16.40;99.90
18083;DHT22;9168;51.194;6.840;2023-08-30T14:23:58;16.30;99.90
18083;DHT22;9168;51.194;6.840;2023-08-30T14:26:26;16.20;99.90
18083;DHT22;9168;51.194;6.840;2023-08-30T14:28:53;16.20;99.90
18083;DHT22;9168;51.194;6.840;2023-08-30T14:31:21;16.20;99.90
18083;DHT22;9168;51.194;6.840;2023-08-30T14:33:48;16.20;99.90
18083;DHT22;9168;51.194;6.840;2023-08-30T14:36:15;16.10;99.90
18083;DHT22;9168;51.194;6.840;2023-08-30T14:38:42;16.10;99.90
18083;DHT22;9168;51.194;6.840;2023-08-30T14:41:09;16.00;99.90
18083;DHT22;9168;51.194;6.840;2023-08-30T14:43:36;16.00;99.90
18083;DHT22;9168;51.194;6.840;2023-08-30T14:46:04;16.00;99.90
18083;DHT22;9168;51.194;6.840;2023-08-30T14:48:32;16.00;99.90
18083;DHT22;9168;51.194;6.840;2023-08-30T14:51:00;15.90;99.90
18083;DHT22;9168;51.194;6.840;2023-08-30T14:53:27;15.90;99.90
18083;DHT22;9168;51.194;6.840;2023-08-30T14:55:54;15.90;99.90
18083;DHT22;9168;51.194;6.840;2023-08-30T14:58:21;15.90;99.90
18083;DHT22;9168;51.194;6.840;2023-08-30T15:00:48;15.90;99.90
18083;DHT22;9168;51.194;6.840;2023-08-30T15:03:15;15.90;99.90
18083;DHT22;9168;51.194;6.840;2023-08-30T15:05:45;15.90;99.90
18083;DHT22;9168;51.194;6.840;2023-08-30T15:08:18;15.90;99.90
18083;DHT22;9168;51.194;6.840;2023-08-30T15:10:45;15.90;99.90
18083;DHT22;9168;51.194;6.840;2023-08-30T15:13:12;15.90;99.90
18083;DHT22;9168;51.194;6.840;2023-08-30T15:15:39;15.90;99.90
18083;DHT22;9168;51.194;6.840;2023-08-30T15:18:06;16.00;99.90
18083;DHT22;9168;51.194;6.840;2023-08-30T15:20:34;16.30;99.90
18083;DHT22;9168;51.194;6.840;2023-08-30T15:23:03;16.60;99.90
18083;DHT22;9168;51.194;6.840;2023-08-30T15:25:30;16.90;99.90
18083;DHT22;9168;51.194;6.840;2023-08-30T15:27:57;17.40;99.90
18083;DHT22;9168;51.194;6.840;2023-08-30T15:30:23;18.00;99.90
18083;DHT22;9168;51.194;6.840;2023-08-30T15:32:50;18.40;99.90
18083;DHT22;9168;51.194;6.840;2023-08-30T15:35:17;18.60;99.90
18083;DHT22;9168;51.194;6.840;2023-08-30T15:37:44;18.50;99.90
18083;DHT22;9168;51.194;6.840;2023-08-30T15:40:12;18.40;99.90
18083;DHT22;9168;51.194;6.840;2023-08-30T15:42:40;18.30;99.90
18083;DHT22;9168;51.194;6.840;2023-08-30T15:45:07;18.20;99.90
18083;DHT22;9168;51.194;6.840;2023-08-30T15:47:34;18.10;99.90
18083;DHT22;9168;51.194;6.840;2023-08-30T15:50:02;18.10;99.90
18083;DHT22;9168;51.194;6.840;2023-08-30T15:52:28;18.00;99.90